This is the latest recevied weather packets stored in our database for station/object KE9DBJ-13. If no packets are shown the sender has not sent any weather packets the latest 10 day(s).
| Time | Temp. | Humidity | Pressure | Rain* | Wind** | Luminosity | Snow |
|---|---|---|---|---|---|---|---|
| 1777687802 | 5.56° C | 90% | 1017.6 hPa | 0 mm | - | - | - |
| 1777687202 | 5.56° C | 88% | 1017.4 hPa | 0 mm | - | - | - |
| 1777686602 | 6.11° C | 83% | 1017 hPa | 0 mm | - | - | - |
| 1777686002 | 6.11° C | 80% | 1016.8 hPa | 0 mm | - | - | - |
| 1777685402 | 6.67° C | 79% | 1016.7 hPa | 0 mm | - | - | - |
| 1777684802 | 7.22° C | 75% | 1016.6 hPa | 0 mm | - | - | - |
| 1777684202 | 8.33° C | 66% | 1016.5 hPa | 0 mm | - | - | - |
| 1777683602 | 8.33° C | 64% | 1016.2 hPa | 0 mm | - | - | - |
| 1777683002 | 8.89° C | 59% | 1016.1 hPa | 0 mm | - | - | - |
| 1777682402 | 9.44° C | 60% | 1015.6 hPa | 0 mm | - | - | - |
| 1777681803 | 10° C | 57% | 1015.6 hPa | 0 mm | - | - | - |
| 1777681203 | 11.11° C | 54% | 1015.2 hPa | 0 mm | - | - | - |
| 1777680603 | 11.67° C | 49% | 1014.9 hPa | 0 mm | - | - | - |
| 1777680003 | 12.22° C | 48% | 1015.1 hPa | 0 mm | - | - | - |
| 1777679403 | 12.22° C | 48% | 1015.1 hPa | 0 mm | - | - | - |
| 1777678803 | 12.22° C | 46% | 1015.2 hPa | 0 mm | - | - | - |
| 1777678203 | 13.33° C | 44% | 1015.1 hPa | 0 mm | - | - | - |
| 1777677603 | 13.33° C | 43% | 1014.9 hPa | 0 mm | - | - | - |
| 1777677003 | 13.33° C | 42% | 1014.9 hPa | 0 mm | - | - | - |
| 1777676403 | 13.33° C | 42% | 1015.2 hPa | 0 mm | - | - | - |
| 1777675803 | 13.33° C | 43% | 1015.1 hPa | 0 mm | - | - | - |
| 1777675203 | 13.33° C | 44% | 1015 hPa | 0 mm | - | - | - |
| 1777674603 | 13.33° C | 45% | 1015 hPa | 0 mm | - | - | - |
| 1777674003 | 13.33° C | 44% | 1015 hPa | 0 mm | - | - | - |
| 1777673402 | 13.33° C | 44% | 1015 hPa | 0 mm | - | - | - |
* Rain latest hour (hover to see other rain measurements)
** Current wind speed in m/s (hover to see current wind gust speed)